sensor_id;sensor_type;location;lat;lon;timestamp;temperature;humidity
20891;DHT22;10605;52.968;8.844;2023-01-23T00:01:16;3.20;99.90
20891;DHT22;10605;52.968;8.844;2023-01-23T00:03:42;3.20;99.90
20891;DHT22;10605;52.968;8.844;2023-01-23T00:06:11;3.10;99.90
20891;DHT22;10605;52.968;8.844;2023-01-23T00:08:38;3.10;99.90
20891;DHT22;10605;52.968;8.844;2023-01-23T00:11:09;3.20;99.90
20891;DHT22;10605;52.968;8.844;2023-01-23T00:13:36;3.20;99.90
20891;DHT22;10605;52.968;8.844;2023-01-23T00:16:09;3.20;99.90
20891;DHT22;10605;52.968;8.844;2023-01-23T00:18:36;3.20;99.90
20891;DHT22;10605;52.968;8.844;2023-01-23T00:21:06;3.20;99.90
20891;DHT22;10605;52.968;8.844;2023-01-23T00:23:32;3.20;99.90
20891;DHT22;10605;52.968;8.844;2023-01-23T00:26:06;3.20;99.90
20891;DHT22;10605;52.968;8.844;2023-01-23T00:28:32;3.10;99.90
20891;DHT22;10605;52.968;8.844;2023-01-23T00:31:05;3.20;99.90
20891;DHT22;10605;52.968;8.844;2023-01-23T00:33:32;3.20;99.90
20891;DHT22;10605;52.968;8.844;2023-01-23T00:35:58;3.20;99.90
20891;DHT22;10605;52.968;8.844;2023-01-23T00:38:24;3.20;99.90
20891;DHT22;10605;52.968;8.844;2023-01-23T00:40:49;3.10;99.90
20891;DHT22;10605;52.968;8.844;2023-01-23T00:43:15;3.20;99.90
20891;DHT22;10605;52.968;8.844;2023-01-23T00:45:41;3.10;99.90
20891;DHT22;10605;52.968;8.844;2023-01-23T00:48:06;3.10;99.90
20891;DHT22;10605;52.968;8.844;2023-01-23T00:50:32;3.10;99.90
20891;DHT22;10605;52.968;8.844;2023-01-23T00:52:57;3.10;99.90
20891;DHT22;10605;52.968;8.844;2023-01-23T00:55:23;3.10;99.90
20891;DHT22;10605;52.968;8.844;2023-01-23T00:57:49;3.10;99.90
20891;DHT22;10605;52.968;8.844;2023-01-23T01:00:15;3.10;99.90
20891;DHT22;10605;52.968;8.844;2023-01-23T01:02:41;3.10;99.90
20891;DHT22;10605;52.968;8.844;2023-01-23T01:05:07;3.10;99.90
20891;DHT22;10605;52.968;8.844;2023-01-23T01:07:32;3.10;99.90
20891;DHT22;10605;52.968;8.844;2023-01-23T01:09:58;3.20;99.90
20891;DHT22;10605;52.968;8.844;2023-01-23T01:12:24;3.10;99.90
20891;DHT22;10605;52.968;8.844;2023-01-23T01:14:49;3.10;99.90
20891;DHT22;10605;52.968;8.844;2023-01-23T01:17:15;3.10;99.90
20891;DHT22;10605;52.968;8.844;2023-01-23T01:19:41;3.10;99.90
20891;DHT22;10605;52.968;8.844;2023-01-23T01:22:06;3.10;99.90
20891;DHT22;10605;52.968;8.844;2023-01-23T01:24:32;3.10;99.90
20891;DHT22;10605;52.968;8.844;2023-01-23T01:26:57;3.10;99.90
20891;DHT22;10605;52.968;8.844;2023-01-23T01:29:23;3.10;99.90
20891;DHT22;10605;52.968;8.844;2023-01-23T01:31:49;3.10;99.90
20891;DHT22;10605;52.968;8.844;2023-01-23T01:34:14;3.10;99.90
20891;DHT22;10605;52.968;8.844;2023-01-23T01:36:40;3.10;99.90
20891;DHT22;10605;52.968;8.844;2023-01-23T01:39:06;3.10;99.90
20891;DHT22;10605;52.968;8.844;2023-01-23T01:41:31;3.10;99.90
20891;DHT22;10605;52.968;8.844;2023-01-23T01:43:57;3.10;99.90
20891;DHT22;10605;52.968;8.844;2023-01-23T01:51:47;3.10;99.90
20891;DHT22;10605;52.968;8.844;2023-01-23T01:54:41;3.10;99.90
20891;DHT22;10605;52.968;8.844;2023-01-23T02:00:07;3.10;99.90
20891;DHT22;10605;52.968;8.844;2023-01-23T02:02:46;3.00;99.90
20891;DHT22;10605;52.968;8.844;2023-01-23T02:05:20;3.10;99.90
20891;DHT22;10605;52.968;8.844;2023-01-23T02:07:55;3.10;99.90
20891;DHT22;10605;52.968;8.844;2023-01-23T02:10:22;3.10;99.90
20891;DHT22;10605;52.968;8.844;2023-01-23T02:12:50;3.00;99.90
20891;DHT22;10605;52.968;8.844;2023-01-23T02:15:16;3.00;99.90
20891;DHT22;10605;52.968;8.844;2023-01-23T02:17:43;3.00;99.90
20891;DHT22;10605;52.968;8.844;2023-01-23T02:20:27;3.00;99.90
20891;DHT22;10605;52.968;8.844;2023-01-23T02:22:58;3.00;99.90
20891;DHT22;10605;52.968;8.844;2023-01-23T02:28:11;3.00;99.90
20891;DHT22;10605;52.968;8.844;2023-01-23T02:30:38;3.00;99.90
20891;DHT22;10605;52.968;8.844;2023-01-23T02:35:49;3.00;99.90
20891;DHT22;10605;52.968;8.844;2023-01-23T02:38:17;3.00;99.90
20891;DHT22;10605;52.968;8.844;2023-01-23T02:40:44;3.00;99.90
20891;DHT22;10605;52.968;8.844;2023-01-23T02:43:15;3.00;99.90
20891;DHT22;10605;52.968;8.844;2023-01-23T02:45:43;3.00;99.90
20891;DHT22;10605;52.968;8.844;2023-01-23T02:48:10;3.00;99.90
20891;DHT22;10605;52.968;8.844;2023-01-23T02:50:35;3.00;99.90
20891;DHT22;10605;52.968;8.844;2023-01-23T02:53:01;2.90;99.90
20891;DHT22;10605;52.968;8.844;2023-01-23T02:55:27;2.90;99.90
20891;DHT22;10605;52.968;8.844;2023-01-23T02:57:57;2.90;99.90
20891;DHT22;10605;52.968;8.844;2023-01-23T03:00:43;2.90;99.90
20891;DHT22;10605;52.968;8.844;2023-01-23T03:03:09;2.90;99.90
20891;DHT22;10605;52.968;8.844;2023-01-23T03:05:34;2.90;99.90
20891;DHT22;10605;52.968;8.844;2023-01-23T03:08:00;2.90;99.90
20891;DHT22;10605;52.968;8.844;2023-01-23T03:10:26;2.90;99.90
20891;DHT22;10605;52.968;8.844;2023-01-23T03:12:53;2.90;99.90
20891;DHT22;10605;52.968;8.844;2023-01-23T03:15:18;2.90;99.90
20891;DHT22;10605;52.968;8.844;2023-01-23T03:17:44;2.90;99.90
20891;DHT22;10605;52.968;8.844;2023-01-23T03:20:11;2.90;99.90
20891;DHT22;10605;52.968;8.844;2023-01-23T03:22:36;2.90;99.90
20891;DHT22;10605;52.968;8.844;2023-01-23T03:25:02;2.90;99.90
20891;DHT22;10605;52.968;8.844;2023-01-23T03:27:28;2.90;99.90
20891;DHT22;10605;52.968;8.844;2023-01-23T03:29:54;3.00;99.90
20891;DHT22;10605;52.968;8.844;2023-01-23T03:32:38;3.00;99.90
20891;DHT22;10605;52.968;8.844;2023-01-23T03:35:08;3.00;99.90
20891;DHT22;10605;52.968;8.844;2023-01-23T03:37:45;3.00;99.90
20891;DHT22;10605;52.968;8.844;2023-01-23T03:40:22;3.00;99.90
20891;DHT22;10605;52.968;8.844;2023-01-23T03:43:07;3.00;99.90
20891;DHT22;10605;52.968;8.844;2023-01-23T03:45:33;3.00;99.90
20891;DHT22;10605;52.968;8.844;2023-01-23T03:48:01;3.00;99.90
20891;DHT22;10605;52.968;8.844;2023-01-23T03:50:27;3.00;99.90
20891;DHT22;10605;52.968;8.844;2023-01-23T03:52:53;3.00;99.90
20891;DHT22;10605;52.968;8.844;2023-01-23T03:55:19;3.00;99.90
20891;DHT22;10605;52.968;8.844;2023-01-23T03:57:44;3.00;99.90
20891;DHT22;10605;52.968;8.844;2023-01-23T04:00:10;3.00;99.90
20891;DHT22;10605;52.968;8.844;2023-01-23T04:02:38;3.00;99.90
20891;DHT22;10605;52.968;8.844;2023-01-23T04:05:03;3.00;99.90
20891;DHT22;10605;52.968;8.844;2023-01-23T04:07:29;3.00;99.90
20891;DHT22;10605;52.968;8.844;2023-01-23T04:09:55;3.00;99.90
20891;DHT22;10605;52.968;8.844;2023-01-23T04:12:21;3.00;99.90
20891;DHT22;10605;52.968;8.844;2023-01-23T04:14:46;3.10;99.90
20891;DHT22;10605;52.968;8.844;2023-01-23T04:17:12;3.10;99.90
20891;DHT22;10605;52.968;8.844;2023-01-23T04:19:38;3.10;99.90
20891;DHT22;10605;52.968;8.844;2023-01-23T04:22:03;3.10;99.90
20891;DHT22;10605;52.968;8.844;2023-01-23T04:24:29;3.00;99.90
20891;DHT22;10605;52.968;8.844;2023-01-23T04:26:56;3.00;99.90
20891;DHT22;10605;52.968;8.844;2023-01-23T04:29:21;3.00;99.90
20891;DHT22;10605;52.968;8.844;2023-01-23T04:31:47;3.00;99.90
20891;DHT22;10605;52.968;8.844;2023-01-23T04:34:13;3.00;99.90
20891;DHT22;10605;52.968;8.844;2023-01-23T04:36:40;3.00;99.90
20891;DHT22;10605;52.968;8.844;2023-01-23T04:39:05;3.00;99.90
20891;DHT22;10605;52.968;8.844;2023-01-23T04:41:32;3.00;99.90
20891;DHT22;10605;52.968;8.844;2023-01-23T04:43:58;3.00;99.90
20891;DHT22;10605;52.968;8.844;2023-01-23T04:46:43;3.00;99.90
20891;DHT22;10605;52.968;8.844;2023-01-23T04:49:09;3.00;99.90
20891;DHT22;10605;52.968;8.844;2023-01-23T04:51:36;3.00;99.90
20891;DHT22;10605;52.968;8.844;2023-01-23T04:54:01;3.00;99.90
20891;DHT22;10605;52.968;8.844;2023-01-23T04:56:27;3.00;99.90
20891;DHT22;10605;52.968;8.844;2023-01-23T04:58:53;3.00;99.90
20891;DHT22;10605;52.968;8.844;2023-01-23T05:01:19;2.90;99.90
20891;DHT22;10605;52.968;8.844;2023-01-23T05:03:48;3.00;99.90
20891;DHT22;10605;52.968;8.844;2023-01-23T05:06:14;2.90;99.90
20891;DHT22;10605;52.968;8.844;2023-01-23T05:08:40;2.90;99.90
20891;DHT22;10605;52.968;8.844;2023-01-23T05:11:07;2.90;99.90
20891;DHT22;10605;52.968;8.844;2023-01-23T05:13:32;2.90;99.90
20891;DHT22;10605;52.968;8.844;2023-01-23T05:15:58;2.90;99.90
20891;DHT22;10605;52.968;8.844;2023-01-23T05:18:24;2.90;99.90
20891;DHT22;10605;52.968;8.844;2023-01-23T05:20:50;2.90;99.90
20891;DHT22;10605;52.968;8.844;2023-01-23T05:23:15;2.90;99.90
20891;DHT22;10605;52.968;8.844;2023-01-23T05:25:41;2.90;99.90
20891;DHT22;10605;52.968;8.844;2023-01-23T05:28:07;2.90;99.90
20891;DHT22;10605;52.968;8.844;2023-01-23T05:30:33;2.90;99.90
20891;DHT22;10605;52.968;8.844;2023-01-23T05:32:58;2.90;99.90
20891;DHT22;10605;52.968;8.844;2023-01-23T05:35:24;2.90;99.90
20891;DHT22;10605;52.968;8.844;2023-01-23T05:37:50;2.90;99.90
20891;DHT22;10605;52.968;8.844;2023-01-23T05:40:16;2.90;99.90
20891;DHT22;10605;52.968;8.844;2023-01-23T05:42:43;2.90;99.90
20891;DHT22;10605;52.968;8.844;2023-01-23T05:45:09;2.90;99.90
20891;DHT22;10605;52.968;8.844;2023-01-23T05:47:35;2.90;99.90
20891;DHT22;10605;52.968;8.844;2023-01-23T05:50:00;2.90;99.90
20891;DHT22;10605;52.968;8.844;2023-01-23T05:52:26;2.90;99.90
20891;DHT22;10605;52.968;8.844;2023-01-23T05:54:52;2.90;99.90
20891;DHT22;10605;52.968;8.844;2023-01-23T05:57:18;2.90;99.90
20891;DHT22;10605;52.968;8.844;2023-01-23T05:59:43;2.90;99.90
20891;DHT22;10605;52.968;8.844;2023-01-23T06:02:09;2.90;99.90
20891;DHT22;10605;52.968;8.844;2023-01-23T06:04:35;2.90;99.90
20891;DHT22;10605;52.968;8.844;2023-01-23T06:07:01;2.90;99.90
20891;DHT22;10605;52.968;8.844;2023-01-23T06:09:26;2.90;99.90
20891;DHT22;10605;52.968;8.844;2023-01-23T06:11:52;2.90;99.90
20891;DHT22;10605;52.968;8.844;2023-01-23T06:14:18;2.90;99.90
20891;DHT22;10605;52.968;8.844;2023-01-23T06:16:43;2.90;99.90
20891;DHT22;10605;52.968;8.844;2023-01-23T06:19:09;2.90;99.90
20891;DHT22;10605;52.968;8.844;2023-01-23T06:21:35;2.90;99.90
20891;DHT22;10605;52.968;8.844;2023-01-23T06:24:01;2.90;99.90
20891;DHT22;10605;52.968;8.844;2023-01-23T06:26:27;2.90;99.90
20891;DHT22;10605;52.968;8.844;2023-01-23T06:28:53;2.90;99.90
20891;DHT22;10605;52.968;8.844;2023-01-23T06:31:19;2.90;99.90
20891;DHT22;10605;52.968;8.844;2023-01-23T06:33:48;2.90;99.90
20891;DHT22;10605;52.968;8.844;2023-01-23T06:36:15;2.90;99.90
20891;DHT22;10605;52.968;8.844;2023-01-23T06:38:41;2.90;99.90
20891;DHT22;10605;52.968;8.844;2023-01-23T06:41:07;2.90;99.90
20891;DHT22;10605;52.968;8.844;2023-01-23T06:43:34;2.90;99.90
20891;DHT22;10605;52.968;8.844;2023-01-23T06:45:59;2.80;99.90
20891;DHT22;10605;52.968;8.844;2023-01-23T06:48:25;2.80;99.90
20891;DHT22;10605;52.968;8.844;2023-01-23T06:50:51;2.80;99.90
20891;DHT22;10605;52.968;8.844;2023-01-23T06:53:17;2.80;99.90
20891;DHT22;10605;52.968;8.844;2023-01-23T06:55:43;2.80;99.90
20891;DHT22;10605;52.968;8.844;2023-01-23T06:58:24;2.80;99.90
20891;DHT22;10605;52.968;8.844;2023-01-23T07:00:49;2.80;99.90
20891;DHT22;10605;52.968;8.844;2023-01-23T07:03:15;2.80;99.90
20891;DHT22;10605;52.968;8.844;2023-01-23T07:05:41;2.80;99.90
20891;DHT22;10605;52.968;8.844;2023-01-23T07:08:08;2.80;99.90
20891;DHT22;10605;52.968;8.844;2023-01-23T07:10:35;2.80;99.90
20891;DHT22;10605;52.968;8.844;2023-01-23T07:13:03;2.70;99.90
20891;DHT22;10605;52.968;8.844;2023-01-23T07:15:29;2.80;99.90
20891;DHT22;10605;52.968;8.844;2023-01-23T07:17:55;2.70;99.90
20891;DHT22;10605;52.968;8.844;2023-01-23T07:20:20;2.70;99.90
20891;DHT22;10605;52.968;8.844;2023-01-23T07:22:46;2.70;99.90
20891;DHT22;10605;52.968;8.844;2023-01-23T07:25:12;2.80;99.90
20891;DHT22;10605;52.968;8.844;2023-01-23T07:27:37;2.90;99.90
20891;DHT22;10605;52.968;8.844;2023-01-23T07:30:03;2.80;99.90
20891;DHT22;10605;52.968;8.844;2023-01-23T07:32:30;2.80;99.90
20891;DHT22;10605;52.968;8.844;2023-01-23T07:34:55;2.70;99.90
20891;DHT22;10605;52.968;8.844;2023-01-23T07:37:21;2.70;99.90
20891;DHT22;10605;52.968;8.844;2023-01-23T07:39:47;2.80;99.90
20891;DHT22;10605;52.968;8.844;2023-01-23T07:42:14;2.80;99.90
20891;DHT22;10605;52.968;8.844;2023-01-23T07:44:40;2.80;99.90
20891;DHT22;10605;52.968;8.844;2023-01-23T07:47:05;2.80;99.90
20891;DHT22;10605;52.968;8.844;2023-01-23T07:49:31;2.80;99.90
20891;DHT22;10605;52.968;8.844;2023-01-23T07:51:57;2.80;99.90
20891;DHT22;10605;52.968;8.844;2023-01-23T07:54:22;2.80;99.90
20891;DHT22;10605;52.968;8.844;2023-01-23T07:56:50;2.80;99.90
20891;DHT22;10605;52.968;8.844;2023-01-23T07:59:16;2.80;99.90
20891;DHT22;10605;52.968;8.844;2023-01-23T08:01:41;2.80;99.90
20891;DHT22;10605;52.968;8.844;2023-01-23T08:04:07;2.80;99.90
20891;DHT22;10605;52.968;8.844;2023-01-23T08:06:33;2.80;99.90
20891;DHT22;10605;52.968;8.844;2023-01-23T08:08:59;2.90;99.90
20891;DHT22;10605;52.968;8.844;2023-01-23T08:11:24;2.90;99.90
20891;DHT22;10605;52.968;8.844;2023-01-23T08:13:51;2.90;99.90
20891;DHT22;10605;52.968;8.844;2023-01-23T08:16:18;2.90;99.90
20891;DHT22;10605;52.968;8.844;2023-01-23T08:18:44;3.00;99.90
20891;DHT22;10605;52.968;8.844;2023-01-23T08:21:10;2.90;99.90
20891;DHT22;10605;52.968;8.844;2023-01-23T08:23:36;3.00;99.90
20891;DHT22;10605;52.968;8.844;2023-01-23T08:26:04;3.00;99.90
20891;DHT22;10605;52.968;8.844;2023-01-23T08:28:30;3.10;99.90
20891;DHT22;10605;52.968;8.844;2023-01-23T08:30:59;3.10;99.90
20891;DHT22;10605;52.968;8.844;2023-01-23T08:33:25;3.10;99.90
20891;DHT22;10605;52.968;8.844;2023-01-23T08:35:53;3.10;99.90
20891;DHT22;10605;52.968;8.844;2023-01-23T08:38:19;3.20;99.90
20891;DHT22;10605;52.968;8.844;2023-01-23T08:40:46;3.20;99.90
20891;DHT22;10605;52.968;8.844;2023-01-23T08:43:12;3.30;99.90
20891;DHT22;10605;52.968;8.844;2023-01-23T08:45:41;3.30;99.90
20891;DHT22;10605;52.968;8.844;2023-01-23T08:48:12;3.20;99.90
20891;DHT22;10605;52.968;8.844;2023-01-23T08:50:37;3.30;99.90
20891;DHT22;10605;52.968;8.844;2023-01-23T08:53:03;3.30;99.90
20891;DHT22;10605;52.968;8.844;2023-01-23T08:55:29;3.40;99.90
20891;DHT22;10605;52.968;8.844;2023-01-23T08:57:56;3.40;99.90
20891;DHT22;10605;52.968;8.844;2023-01-23T09:00:22;3.50;99.90
20891;DHT22;10605;52.968;8.844;2023-01-23T09:02:49;3.50;99.90
20891;DHT22;10605;52.968;8.844;2023-01-23T09:05:16;3.60;99.90
20891;DHT22;10605;52.968;8.844;2023-01-23T09:07:42;3.60;99.90
20891;DHT22;10605;52.968;8.844;2023-01-23T09:10:08;3.80;99.90
20891;DHT22;10605;52.968;8.844;2023-01-23T09:12:34;3.80;99.90
20891;DHT22;10605;52.968;8.844;2023-01-23T09:15:00;3.70;99.90
20891;DHT22;10605;52.968;8.844;2023-01-23T09:17:26;3.80;99.90
20891;DHT22;10605;52.968;8.844;2023-01-23T09:19:52;3.80;99.90
20891;DHT22;10605;52.968;8.844;2023-01-23T09:22:17;3.90;99.90
20891;DHT22;10605;52.968;8.844;2023-01-23T09:24:43;3.90;99.90
20891;DHT22;10605;52.968;8.844;2023-01-23T09:27:09;4.10;99.90
20891;DHT22;10605;52.968;8.844;2023-01-23T09:29:35;4.20;99.90
20891;DHT22;10605;52.968;8.844;2023-01-23T09:32:01;4.30;99.90
20891;DHT22;10605;52.968;8.844;2023-01-23T09:34:28;4.20;99.90
20891;DHT22;10605;52.968;8.844;2023-01-23T09:36:54;4.20;99.90
20891;DHT22;10605;52.968;8.844;2023-01-23T09:39:20;4.10;99.90
20891;DHT22;10605;52.968;8.844;2023-01-23T09:41:47;4.20;99.90
20891;DHT22;10605;52.968;8.844;2023-01-23T09:44:35;4.10;99.90
20891;DHT22;10605;52.968;8.844;2023-01-23T09:47:14;4.20;99.90
20891;DHT22;10605;52.968;8.844;2023-01-23T09:50:00;4.50;99.90
20891;DHT22;10605;52.968;8.844;2023-01-23T09:52:34;4.50;99.90
20891;DHT22;10605;52.968;8.844;2023-01-23T09:55:14;4.50;99.90
20891;DHT22;10605;52.968;8.844;2023-01-23T09:57:51;4.50;99.90
20891;DHT22;10605;52.968;8.844;2023-01-23T10:00:30;4.50;99.90
20891;DHT22;10605;52.968;8.844;2023-01-23T10:02:57;4.60;99.90
20891;DHT22;10605;52.968;8.844;2023-01-23T10:08:41;4.50;99.90
20891;DHT22;10605;52.968;8.844;2023-01-23T11:37:39;5.20;99.90
20891;DHT22;10605;52.968;8.844;2023-01-23T11:40:25;5.30;99.90
20891;DHT22;10605;52.968;8.844;2023-01-23T11:42:51;5.20;99.90
20891;DHT22;10605;52.968;8.844;2023-01-23T11:48:46;5.20;99.90
20891;DHT22;10605;52.968;8.844;2023-01-23T11:57:20;5.20;99.90
20891;DHT22;10605;52.968;8.844;2023-01-23T11:59:52;5.30;99.90
20891;DHT22;10605;52.968;8.844;2023-01-23T12:05:50;5.20;99.90
20891;DHT22;10605;52.968;8.844;2023-01-23T12:08:42;5.20;99.90
20891;DHT22;10605;52.968;8.844;2023-01-23T12:11:11;5.20;99.90
20891;DHT22;10605;52.968;8.844;2023-01-23T12:16:25;5.20;99.90
20891;DHT22;10605;52.968;8.844;2023-01-23T12:24:54;5.20;99.90
20891;DHT22;10605;52.968;8.844;2023-01-23T12:27:39;5.10;99.90
20891;DHT22;10605;52.968;8.844;2023-01-23T12:46:54;5.10;99.90
20891;DHT22;10605;52.968;8.844;2023-01-23T12:49:34;5.00;99.90
20891;DHT22;10605;52.968;8.844;2023-01-23T12:52:27;5.10;99.90
20891;DHT22;10605;52.968;8.844;2023-01-23T12:55:01;5.10;99.90
20891;DHT22;10605;52.968;8.844;2023-01-23T12:57:29;5.20;99.90
20891;DHT22;10605;52.968;8.844;2023-01-23T13:08:33;5.10;99.90
20891;DHT22;10605;52.968;8.844;2023-01-23T13:13:53;5.20;99.90
20891;DHT22;10605;52.968;8.844;2023-01-23T13:16:20;5.30;99.90
20891;DHT22;10605;52.968;8.844;2023-01-23T13:21:36;5.40;99.90
20891;DHT22;10605;52.968;8.844;2023-01-23T13:24:28;5.30;99.90
20891;DHT22;10605;52.968;8.844;2023-01-23T13:30:01;5.40;99.90
20891;DHT22;10605;52.968;8.844;2023-01-23T13:32:28;5.20;99.90
20891;DHT22;10605;52.968;8.844;2023-01-23T13:34:56;5.10;99.90
20891;DHT22;10605;52.968;8.844;2023-01-23T13:40:25;5.10;99.90
20891;DHT22;10605;52.968;8.844;2023-01-23T13:42:51;5.20;99.90
20891;DHT22;10605;52.968;8.844;2023-01-23T13:45:22;5.20;99.90
20891;DHT22;10605;52.968;8.844;2023-01-23T13:51:19;5.30;99.90
20891;DHT22;10605;52.968;8.844;2023-01-23T13:53:48;5.50;99.90
20891;DHT22;10605;52.968;8.844;2023-01-23T13:56:33;5.50;99.90
20891;DHT22;10605;52.968;8.844;2023-01-23T13:59:29;5.30;99.90
20891;DHT22;10605;52.968;8.844;2023-01-23T14:05:15;5.10;99.90
20891;DHT22;10605;52.968;8.844;2023-01-23T14:07:45;5.00;99.90
20891;DHT22;10605;52.968;8.844;2023-01-23T14:12:46;4.90;99.90
20891;DHT22;10605;52.968;8.844;2023-01-23T14:15:21;4.90;99.90
20891;DHT22;10605;52.968;8.844;2023-01-23T14:18:59;4.90;99.90
20891;DHT22;10605;52.968;8.844;2023-01-23T14:21:12;4.90;99.90
20891;DHT22;10605;52.968;8.844;2023-01-23T14:23:40;4.70;99.90
20891;DHT22;10605;52.968;8.844;2023-01-23T14:26:09;4.80;99.90
20891;DHT22;10605;52.968;8.844;2023-01-23T14:28:36;4.70;99.90
20891;DHT22;10605;52.968;8.844;2023-01-23T14:31:04;4.70;99.90
20891;DHT22;10605;52.968;8.844;2023-01-23T14:33:43;4.70;99.90
20891;DHT22;10605;52.968;8.844;2023-01-23T14:36:17;4.60;99.90
20891;DHT22;10605;52.968;8.844;2023-01-23T14:38:45;4.60;99.90
20891;DHT22;10605;52.968;8.844;2023-01-23T14:41:12;4.50;99.90
20891;DHT22;10605;52.968;8.844;2023-01-23T14:43:39;4.60;99.90
20891;DHT22;10605;52.968;8.844;2023-01-23T14:48:40;4.60;99.90
20891;DHT22;10605;52.968;8.844;2023-01-23T14:53:53;4.60;99.90
20891;DHT22;10605;52.968;8.844;2023-01-23T14:56:20;4.50;99.90
20891;DHT22;10605;52.968;8.844;2023-01-23T14:58:47;4.60;99.90
20891;DHT22;10605;52.968;8.844;2023-01-23T15:01:12;4.60;99.90
20891;DHT22;10605;52.968;8.844;2023-01-23T15:03:43;4.50;99.90
20891;DHT22;10605;52.968;8.844;2023-01-23T15:06:20;4.50;99.90
20891;DHT22;10605;52.968;8.844;2023-01-23T15:08:46;4.40;99.90
20891;DHT22;10605;52.968;8.844;2023-01-23T15:11:13;4.30;99.90
20891;DHT22;10605;52.968;8.844;2023-01-23T15:13:46;4.30;99.90
20891;DHT22;10605;52.968;8.844;2023-01-23T15:16:23;4.30;99.90
20891;DHT22;10605;52.968;8.844;2023-01-23T15:18:59;4.20;99.90
20891;DHT22;10605;52.968;8.844;2023-01-23T15:21:34;4.20;99.90
20891;DHT22;10605;52.968;8.844;2023-01-23T15:24:14;4.20;99.90
20891;DHT22;10605;52.968;8.844;2023-01-23T15:26:43;4.20;99.90
20891;DHT22;10605;52.968;8.844;2023-01-23T15:31:43;4.10;99.90
20891;DHT22;10605;52.968;8.844;2023-01-23T15:44:52;3.90;99.90
20891;DHT22;10605;52.968;8.844;2023-01-23T15:47:18;3.90;99.90
20891;DHT22;10605;52.968;8.844;2023-01-23T15:49:43;3.90;99.90
20891;DHT22;10605;52.968;8.844;2023-01-23T15:52:27;3.90;99.90
20891;DHT22;10605;52.968;8.844;2023-01-23T15:54:59;3.90;99.90
20891;DHT22;10605;52.968;8.844;2023-01-23T15:57:25;3.90;99.90
20891;DHT22;10605;52.968;8.844;2023-01-23T15:59:51;3.80;99.90
20891;DHT22;10605;52.968;8.844;2023-01-23T16:02:19;3.80;99.90
20891;DHT22;10605;52.968;8.844;2023-01-23T16:04:45;3.80;99.90
20891;DHT22;10605;52.968;8.844;2023-01-23T16:07:47;3.80;99.90
20891;DHT22;10605;52.968;8.844;2023-01-23T16:10:17;3.80;99.90
20891;DHT22;10605;52.968;8.844;2023-01-23T16:12:44;3.80;99.90
20891;DHT22;10605;52.968;8.844;2023-01-23T16:15:23;3.80;99.90
20891;DHT22;10605;52.968;8.844;2023-01-23T16:17:50;3.70;99.90
20891;DHT22;10605;52.968;8.844;2023-01-23T16:20:42;3.80;99.90
20891;DHT22;10605;52.968;8.844;2023-01-23T16:23:12;3.80;99.90
20891;DHT22;10605;52.968;8.844;2023-01-23T16:25:40;3.80;99.90
20891;DHT22;10605;52.968;8.844;2023-01-23T16:28:21;3.70;99.90
20891;DHT22;10605;52.968;8.844;2023-01-23T16:30:48;3.70;99.90
20891;DHT22;10605;52.968;8.844;2023-01-23T16:33:15;3.70;99.90
20891;DHT22;10605;52.968;8.844;2023-01-23T16:35:41;3.70;99.90
20891;DHT22;10605;52.968;8.844;2023-01-23T16:38:23;3.70;99.90
20891;DHT22;10605;52.968;8.844;2023-01-23T16:40:50;3.70;99.90
20891;DHT22;10605;52.968;8.844;2023-01-23T16:43:19;3.70;99.90
20891;DHT22;10605;52.968;8.844;2023-01-23T16:45:45;3.70;99.90
20891;DHT22;10605;52.968;8.844;2023-01-23T16:48:10;3.60;99.90
20891;DHT22;10605;52.968;8.844;2023-01-23T16:50:40;3.60;99.90
20891;DHT22;10605;52.968;8.844;2023-01-23T16:56:26;3.60;99.90
20891;DHT22;10605;52.968;8.844;2023-01-23T16:58:54;3.60;99.90
20891;DHT22;10605;52.968;8.844;2023-01-23T17:01:21;3.70;99.90
20891;DHT22;10605;52.968;8.844;2023-01-23T17:03:54;3.60;99.90
20891;DHT22;10605;52.968;8.844;2023-01-23T17:06:21;3.70;99.90
20891;DHT22;10605;52.968;8.844;2023-01-23T17:08:46;3.70;99.90
20891;DHT22;10605;52.968;8.844;2023-01-23T17:13:57;3.70;99.90
20891;DHT22;10605;52.968;8.844;2023-01-23T17:16:24;3.70;99.90
20891;DHT22;10605;52.968;8.844;2023-01-23T17:18:50;3.70;99.90
20891;DHT22;10605;52.968;8.844;2023-01-23T17:21:18;3.70;99.90
20891;DHT22;10605;52.968;8.844;2023-01-23T17:23:45;3.70;99.90
20891;DHT22;10605;52.968;8.844;2023-01-23T17:26:15;3.70;99.90
20891;DHT22;10605;52.968;8.844;2023-01-23T17:28:41;3.70;99.90
20891;DHT22;10605;52.968;8.844;2023-01-23T17:31:17;3.70;99.90
20891;DHT22;10605;52.968;8.844;2023-01-23T17:33:45;3.70;99.90
20891;DHT22;10605;52.968;8.844;2023-01-23T17:36:11;3.70;99.90
20891;DHT22;10605;52.968;8.844;2023-01-23T17:38:37;3.70;99.90
20891;DHT22;10605;52.968;8.844;2023-01-23T17:41:04;3.70;99.90
20891;DHT22;10605;52.968;8.844;2023-01-23T17:43:31;3.70;99.90
20891;DHT22;10605;52.968;8.844;2023-01-23T17:45:57;3.70;99.90
20891;DHT22;10605;52.968;8.844;2023-01-23T17:48:28;3.70;99.90
20891;DHT22;10605;52.968;8.844;2023-01-23T17:50:55;3.70;99.90
20891;DHT22;10605;52.968;8.844;2023-01-23T17:53:21;3.70;99.90
20891;DHT22;10605;52.968;8.844;2023-01-23T17:55:48;3.70;99.90
20891;DHT22;10605;52.968;8.844;2023-01-23T17:58:16;3.70;99.90
20891;DHT22;10605;52.968;8.844;2023-01-23T18:00:45;3.70;99.90
20891;DHT22;10605;52.968;8.844;2023-01-23T18:03:16;3.70;99.90
20891;DHT22;10605;52.968;8.844;2023-01-23T18:05:42;3.70;99.90
20891;DHT22;10605;52.968;8.844;2023-01-23T18:08:14;3.70;99.90
20891;DHT22;10605;52.968;8.844;2023-01-23T18:10:44;3.70;99.90
20891;DHT22;10605;52.968;8.844;2023-01-23T18:18:39;3.70;99.90
20891;DHT22;10605;52.968;8.844;2023-01-23T18:21:11;3.70;99.90
20891;DHT22;10605;52.968;8.844;2023-01-23T18:23:37;3.70;99.90
20891;DHT22;10605;52.968;8.844;2023-01-23T18:28:50;3.70;99.90
20891;DHT22;10605;52.968;8.844;2023-01-23T18:31:41;3.70;99.90
20891;DHT22;10605;52.968;8.844;2023-01-23T18:34:38;3.60;99.90
20891;DHT22;10605;52.968;8.844;2023-01-23T18:37:41;3.70;99.90
20891;DHT22;10605;52.968;8.844;2023-01-23T18:45:45;3.70;99.90
20891;DHT22;10605;52.968;8.844;2023-01-23T18:48:13;3.70;99.90
20891;DHT22;10605;52.968;8.844;2023-01-23T18:50:47;3.70;99.90
20891;DHT22;10605;52.968;8.844;2023-01-23T18:56:11;3.60;99.90
20891;DHT22;10605;52.968;8.844;2023-01-23T19:01:40;3.60;99.90
20891;DHT22;10605;52.968;8.844;2023-01-23T19:04:13;3.60;99.90
20891;DHT22;10605;52.968;8.844;2023-01-23T19:06:40;3.60;99.90
20891;DHT22;10605;52.968;8.844;2023-01-23T19:09:18;3.60;99.90
20891;DHT22;10605;52.968;8.844;2023-01-23T19:14:21;3.60;99.90
20891;DHT22;10605;52.968;8.844;2023-01-23T19:16:57;3.60;99.90
20891;DHT22;10605;52.968;8.844;2023-01-23T19:19:30;3.60;99.90
20891;DHT22;10605;52.968;8.844;2023-01-23T19:21:56;3.60;99.90
20891;DHT22;10605;52.968;8.844;2023-01-23T19:24:23;3.60;99.90
20891;DHT22;10605;52.968;8.844;2023-01-23T19:26:49;3.60;99.90
20891;DHT22;10605;52.968;8.844;2023-01-23T19:29:15;3.60;99.90
20891;DHT22;10605;52.968;8.844;2023-01-23T19:31:41;3.60;99.90
20891;DHT22;10605;52.968;8.844;2023-01-23T19:34:07;3.60;99.90